createdAt,value
2022-10-17T00:01:30.719Z,5.20
2022-10-17T00:03:57.160Z,6.17
2022-10-17T00:06:23.579Z,6.37
2022-10-17T00:08:49.995Z,5.80
2022-10-17T00:11:19.318Z,6.43
2022-10-17T00:13:46.983Z,7.90
2022-10-17T00:16:13.981Z,7.53
2022-10-17T00:18:40.752Z,5.10
2022-10-17T00:21:15.334Z,5.43
2022-10-17T00:23:41.679Z,5.60
2022-10-17T00:26:08.038Z,8.97
2022-10-17T00:28:34.467Z,7.70
2022-10-17T00:31:04.413Z,6.47
2022-10-17T00:33:32.297Z,8.50
2022-10-17T00:36:09.370Z,5.73
2022-10-17T00:38:37.105Z,5.23
2022-10-17T00:41:04.517Z,7.80
2022-10-17T00:43:56.552Z,9.03
2022-10-17T00:46:26.047Z,5.73
2022-10-17T00:48:54.602Z,5.80
2022-10-17T00:51:27.581Z,5.87
2022-10-17T00:53:54.001Z,8.33
2022-10-17T00:56:21.199Z,6.43
2022-10-17T00:58:48.115Z,7.17
2022-10-17T01:01:14.683Z,7.87
2022-10-17T01:03:41.200Z,6.40
2022-10-17T01:06:07.599Z,6.07
2022-10-17T01:08:34.581Z,9.63
2022-10-17T01:11:13.666Z,6.00
2022-10-17T01:13:51.738Z,6.80
2022-10-17T01:16:31.629Z,8.13
2022-10-17T01:19:36.336Z,6.20
2022-10-17T01:22:22.810Z,5.10
2022-10-17T01:25:07.926Z,6.47
2022-10-17T01:27:46.990Z,6.73
2022-10-17T01:31:04.563Z,9.50
2022-10-17T01:33:33.453Z,6.57
2022-10-17T01:36:23.785Z,6.63
2022-10-17T01:39:02.094Z,6.93
2022-10-17T01:41:37.258Z,9.43
2022-10-17T01:44:19.546Z,6.90
2022-10-17T01:46:52.207Z,6.40
2022-10-17T01:49:23.802Z,9.03
2022-10-17T01:51:56.460Z,8.20
2022-10-17T01:54:28.613Z,7.90
2022-10-17T01:57:03.686Z,6.70
2022-10-17T01:59:47.222Z,10.70
2022-10-17T02:02:15.519Z,7.20
2022-10-17T02:04:43.010Z,6.27
2022-10-17T02:07:11.316Z,6.63
2022-10-17T02:09:38.366Z,7.43
2022-10-17T02:12:13.739Z,7.63
2022-10-17T02:14:52.487Z,7.53
2022-10-17T02:17:43.562Z,9.03
2022-10-17T02:20:20.296Z,7.43
2022-10-17T02:22:57.406Z,8.97
2022-10-17T02:25:35.614Z,8.17
2022-10-17T02:28:19.916Z,8.70
2022-10-17T02:30:56.083Z,8.77
2022-10-17T02:33:35.068Z,7.17
2022-10-17T02:36:08.797Z,6.67
2022-10-17T02:38:35.614Z,10.40
2022-10-17T02:41:03.616Z,10.03
2022-10-17T02:43:30.217Z,8.47
2022-10-17T02:45:57.242Z,8.70
2022-10-17T02:48:42.366Z,12.13
2022-10-17T02:51:37.779Z,8.23
2022-10-17T02:54:26.496Z,8.23
2022-10-17T02:57:02.273Z,8.80
2022-10-17T03:02:04.113Z,9.27
2022-10-17T03:04:30.479Z,7.53
2022-10-17T03:06:56.893Z,6.73
2022-10-17T03:09:23.251Z,8.20
2022-10-17T03:11:49.606Z,7.30
2022-10-17T03:14:15.976Z,8.50
2022-10-17T03:16:42.374Z,10.33
2022-10-17T03:19:08.841Z,6.90
2022-10-17T03:21:37.374Z,10.90
2022-10-17T03:24:04.744Z,9.23
2022-10-17T03:26:31.159Z,7.37
2022-10-17T03:28:57.634Z,9.47
2022-10-17T03:31:24.088Z,10.50
2022-10-17T03:33:50.442Z,8.50
2022-10-17T03:36:18.291Z,8.47
2022-10-17T03:38:45.285Z,6.93
2022-10-17T03:41:12.324Z,9.20
2022-10-17T03:43:42.247Z,8.63
2022-10-17T03:46:08.735Z,8.73
2022-10-17T03:48:35.175Z,8.60
2022-10-17T03:51:04.218Z,8.47
2022-10-17T03:53:30.853Z,8.10
2022-10-17T03:55:57.960Z,7.17
2022-10-17T03:58:24.385Z,7.83
2022-10-17T04:00:50.840Z,8.20
2022-10-17T04:03:17.514Z,8.13
2022-10-17T04:05:43.931Z,7.83
2022-10-17T04:08:10.310Z,7.20
2022-10-17T04:10:36.669Z,7.93
2022-10-17T04:13:03.108Z,9.03
2022-10-17T04:15:29.453Z,13.07
2022-10-17T04:17:55.896Z,8.20
2022-10-17T04:20:22.355Z,11.27
2022-10-17T04:22:48.713Z,8.37
2022-10-17T04:25:15.239Z,7.87
2022-10-17T04:27:41.595Z,8.27
2022-10-17T04:30:08.213Z,6.27
2022-10-17T04:32:38.561Z,10.87
2022-10-17T04:35:05.429Z,8.03
2022-10-17T04:37:31.821Z,8.20
2022-10-17T04:39:58.177Z,9.90
2022-10-17T04:42:24.546Z,8.73
2022-10-17T04:44:50.905Z,9.70
2022-10-17T04:47:17.250Z,8.40
2022-10-17T04:49:43.617Z,7.57
2022-10-17T04:52:09.976Z,13.07
2022-10-17T04:54:36.343Z,11.17
2022-10-17T04:57:02.748Z,11.47
2022-10-17T04:59:29.248Z,10.97
2022-10-17T05:01:55.629Z,8.33
2022-10-17T05:04:24.712Z,8.57
2022-10-17T05:06:51.478Z,9.97
2022-10-17T05:09:17.991Z,7.03
2022-10-17T05:11:44.384Z,8.73
2022-10-17T05:14:10.757Z,8.33
2022-10-17T05:16:37.173Z,8.30
2022-10-17T05:19:03.601Z,8.90
2022-10-17T05:21:30.690Z,9.93
2022-10-17T05:23:57.646Z,8.13
2022-10-17T05:26:24.770Z,9.50
2022-10-17T05:28:52.589Z,8.33
2022-10-17T05:31:19.304Z,8.93
2022-10-17T05:33:45.941Z,10.53
2022-10-17T05:36:12.459Z,8.57
2022-10-17T05:38:38.877Z,9.70
2022-10-17T05:41:06.160Z,7.63
2022-10-17T05:43:34.111Z,8.77
2022-10-17T05:46:04.496Z,9.27
2022-10-17T05:48:30.931Z,8.30
2022-10-17T05:50:59.803Z,12.00
2022-10-17T05:53:26.513Z,8.80
2022-10-17T05:56:00.349Z,7.43
2022-10-17T06:01:14.505Z,8.37
2022-10-17T06:03:40.991Z,12.17
2022-10-17T06:06:10.182Z,7.37
2022-10-17T06:08:36.947Z,8.17
2022-10-17T06:11:06.140Z,9.13
2022-10-17T06:13:35.639Z,8.17
2022-10-17T06:16:02.040Z,8.13
2022-10-17T06:18:28.501Z,8.13
2022-10-17T06:20:54.905Z,9.13
2022-10-17T06:23:21.340Z,8.90
2022-10-17T06:25:47.687Z,7.60
2022-10-17T06:28:14.056Z,8.63
2022-10-17T06:30:41.275Z,8.60
2022-10-17T06:33:07.682Z,8.73
2022-10-17T06:35:34.048Z,10.73
2022-10-17T06:38:00.440Z,8.53
2022-10-17T06:40:26.837Z,7.97
2022-10-17T06:42:53.328Z,9.17
2022-10-17T06:45:19.695Z,6.70
2022-10-17T06:47:46.053Z,6.60
2022-10-17T06:50:12.421Z,8.23
2022-10-17T06:52:39.403Z,7.17
2022-10-17T06:55:06.270Z,6.23
2022-10-17T06:57:32.719Z,7.97
2022-10-17T06:59:59.199Z,8.93
2022-10-17T07:02:25.910Z,10.73
2022-10-17T07:04:52.515Z,7.73
2022-10-17T07:07:19.369Z,7.93
2022-10-17T07:09:45.721Z,6.83
2022-10-17T07:12:12.812Z,7.63
2022-10-17T07:14:39.267Z,7.03
2022-10-17T07:17:05.731Z,6.53
2022-10-17T07:19:32.413Z,9.30
2022-10-17T07:21:58.823Z,7.13
2022-10-17T07:24:25.326Z,7.43
2022-10-17T07:26:51.698Z,7.63
2022-10-17T07:29:18.134Z,8.17
2022-10-17T07:31:45.662Z,6.70
2022-10-17T07:34:12.080Z,7.40
2022-10-17T07:36:38.449Z,8.90
2022-10-17T07:39:04.956Z,6.67
2022-10-17T07:41:31.356Z,9.37
2022-10-17T07:43:57.992Z,10.20
2022-10-17T07:46:24.359Z,8.87
2022-10-17T07:48:51.161Z,7.50
2022-10-17T07:51:19.998Z,9.70
2022-10-17T07:53:48.779Z,8.20
2022-10-17T07:56:15.498Z,8.73
2022-10-17T07:58:41.867Z,9.10
2022-10-17T08:01:15.434Z,8.07
2022-10-17T08:03:44.752Z,9.07
2022-10-17T08:06:11.771Z,10.00
2022-10-17T08:08:38.197Z,7.30
2022-10-17T08:11:07.205Z,9.10
2022-10-17T08:13:34.053Z,7.43
2022-10-17T08:16:07.398Z,11.37
2022-10-17T08:18:35.033Z,7.30
2022-10-17T08:21:08.374Z,7.47
2022-10-17T08:23:35.947Z,7.33
2022-10-17T08:26:04.637Z,9.83
2022-10-17T08:28:31.128Z,7.60
2022-10-17T08:31:08.273Z,8.33
2022-10-17T08:33:35.135Z,9.40
2022-10-17T08:36:01.853Z,7.80
2022-10-17T08:38:31.998Z,7.77
2022-10-17T08:41:05.193Z,7.60
2022-10-17T08:43:47.581Z,6.43
2022-10-17T08:48:46.535Z,8.97
2022-10-17T08:51:13.212Z,7.20
2022-10-17T08:53:39.584Z,6.73
2022-10-17T08:56:19.840Z,6.87
2022-10-17T08:58:51.790Z,8.77
2022-10-17T09:01:24.277Z,9.00
2022-10-17T09:04:23.896Z,8.67
2022-10-17T09:07:16.384Z,7.20
2022-10-17T09:10:17.085Z,8.93
2022-10-17T09:12:43.379Z,8.80
2022-10-17T09:15:34.057Z,15.03
2022-10-17T09:18:13.202Z,8.27
2022-10-17T09:20:47.503Z,10.67
2022-10-17T09:23:19.882Z,8.00
2022-10-17T09:25:53.712Z,7.83
2022-10-17T09:28:33.433Z,8.87
2022-10-17T09:31:03.252Z,6.67
2022-10-17T09:33:59.972Z,6.33
2022-10-17T09:36:33.771Z,8.07
2022-10-17T09:39:12.781Z,7.90
2022-10-17T09:41:45.820Z,8.80
2022-10-17T09:44:21.675Z,7.03
2022-10-17T09:47:02.891Z,6.60
2022-10-17T09:49:34.328Z,8.07
2022-10-17T09:52:03.238Z,8.50
2022-10-17T09:54:43.523Z,7.87
2022-10-17T09:57:12.453Z,6.00
2022-10-17T09:59:47.647Z,10.30
2022-10-17T10:02:13.930Z,6.60
2022-10-17T10:05:07.564Z,9.10
2022-10-17T10:07:37.712Z,8.07
2022-10-17T10:10:07.581Z,8.63
2022-10-17T10:12:39.213Z,8.37
2022-10-17T10:15:31.182Z,8.37
2022-10-17T10:17:57.585Z,7.90
2022-10-17T10:20:28.285Z,9.73
2022-10-17T10:23:05.176Z,7.87
2022-10-17T10:25:31.562Z,6.87
2022-10-17T10:28:00.666Z,8.83
2022-10-17T10:30:32.796Z,7.60
2022-10-17T10:33:01.571Z,7.07
2022-10-17T10:35:36.290Z,10.63
2022-10-17T10:38:14.061Z,7.30
2022-10-17T10:40:52.986Z,6.80
2022-10-17T10:43:22.443Z,8.57
2022-10-17T10:45:49.438Z,7.60
2022-10-17T10:48:24.571Z,9.17
2022-10-17T10:51:23.520Z,6.90
2022-10-17T10:53:59.689Z,5.67
2022-10-17T10:56:33.906Z,6.10
2022-10-17T10:59:25.447Z,6.70
2022-10-17T11:01:55.021Z,7.00
2022-10-17T11:04:44.586Z,9.13
2022-10-17T11:07:22.559Z,6.50
2022-10-17T11:10:00.839Z,6.37
2022-10-17T11:12:38.943Z,6.83
2022-10-17T11:15:18.205Z,6.13
2022-10-17T11:18:22.148Z,7.27
2022-10-17T11:21:01.565Z,6.57
2022-10-17T11:23:34.289Z,7.87
2022-10-17T11:26:08.540Z,7.70
2022-10-17T11:28:35.115Z,8.13
2022-10-17T11:31:07.180Z,10.50
2022-10-17T11:33:46.625Z,7.60
2022-10-17T11:36:16.784Z,7.30
2022-10-17T11:38:46.769Z,10.60
2022-10-17T11:41:21.233Z,9.87
2022-10-17T11:43:57.509Z,10.20
2022-10-17T11:46:26.810Z,8.20
2022-10-17T11:49:19.826Z,7.43
2022-10-17T11:52:44.033Z,7.07
2022-10-17T11:55:18.574Z,9.27
2022-10-17T11:58:10.012Z,8.97
2022-10-17T12:00:49.895Z,6.60
2022-10-17T12:03:41.382Z,7.03
2022-10-17T12:06:46.881Z,9.90
2022-10-17T12:09:25.454Z,9.40
2022-10-17T12:11:58.153Z,8.80
2022-10-17T12:14:37.137Z,8.90
2022-10-17T12:17:06.000Z,9.57
2022-10-17T12:19:35.118Z,11.37
2022-10-17T12:22:23.414Z,7.63
2022-10-17T12:24:55.089Z,11.43
2022-10-17T12:27:43.622Z,8.57
2022-10-17T12:30:13.517Z,8.57
2022-10-17T12:33:07.438Z,10.87
2022-10-17T12:35:36.309Z,8.57
2022-10-17T12:38:17.600Z,10.00
2022-10-17T12:40:48.490Z,8.30
2022-10-17T12:43:15.381Z,8.23
2022-10-17T12:45:55.838Z,8.50
2022-10-17T12:48:34.372Z,10.37
2022-10-17T12:51:34.042Z,9.17
2022-10-17T12:54:15.871Z,9.00
2022-10-17T12:56:45.760Z,13.43
2022-10-17T12:59:25.787Z,10.73
2022-10-17T13:01:56.329Z,9.37
2022-10-17T13:04:23.955Z,9.27
2022-10-17T13:06:56.491Z,8.60
2022-10-17T13:09:28.310Z,10.03
2022-10-17T13:11:57.469Z,10.63
2022-10-17T13:14:25.613Z,11.30
2022-10-17T13:16:54.794Z,9.73
2022-10-17T13:19:24.896Z,10.83
2022-10-17T13:21:56.134Z,10.50
2022-10-17T13:24:34.786Z,11.53
2022-10-17T13:27:01.967Z,13.80
2022-10-17T13:29:30.829Z,12.57
2022-10-17T13:32:04.377Z,10.77
2022-10-17T13:34:32.639Z,10.63
2022-10-17T13:37:02.715Z,16.73
2022-10-17T13:39:45.628Z,15.20
2022-10-17T13:42:27.343Z,10.63
2022-10-17T13:44:55.022Z,13.43
2022-10-17T13:47:27.559Z,11.20
2022-10-17T13:49:55.688Z,12.40
2022-10-17T13:52:27.434Z,13.37
2022-10-17T13:54:55.758Z,10.67
2022-10-17T13:57:28.032Z,11.77
2022-10-17T14:00:09.868Z,10.67
2022-10-17T14:02:38.292Z,11.67
2022-10-17T14:05:23.610Z,12.23
2022-10-17T14:10:42.172Z,14.23
2022-10-17T14:13:20.919Z,12.03
2022-10-17T14:15:47.540Z,10.00
2022-10-17T14:18:19.601Z,7.87
2022-10-17T14:21:31.799Z,11.30
2022-10-17T14:23:38.460Z,9.13
2022-10-17T14:26:09.093Z,10.00
2022-10-17T14:28:36.093Z,13.33
2022-10-17T14:31:33.705Z,10.60
2022-10-17T14:34:02.860Z,11.07
2022-10-17T14:36:42.871Z,8.77
2022-10-17T14:39:20.596Z,9.83
2022-10-17T14:41:47.909Z,9.90
2022-10-17T14:44:25.563Z,10.03
2022-10-17T14:47:30.122Z,10.10
2022-10-17T14:49:52.412Z,9.37
2022-10-17T14:52:19.158Z,10.33
2022-10-17T14:54:49.688Z,10.07
2022-10-17T14:57:29.839Z,10.20
2022-10-17T14:59:57.311Z,9.83
2022-10-17T15:02:29.748Z,13.27
2022-10-17T15:04:56.523Z,11.67
2022-10-17T15:07:23.900Z,10.77
2022-10-17T15:09:52.709Z,9.57
2022-10-17T15:12:21.816Z,10.57
2022-10-17T15:14:48.538Z,9.10
2022-10-17T15:17:20.913Z,10.07
2022-10-17T15:19:48.073Z,10.80
2022-10-17T15:22:16.058Z,12.63
2022-10-17T15:24:42.535Z,13.23
2022-10-17T15:27:26.384Z,11.60
2022-10-17T15:29:53.044Z,10.73
2022-10-17T15:32:19.465Z,14.07
2022-10-17T15:34:45.895Z,11.43
2022-10-17T15:37:24.623Z,11.30
2022-10-17T15:39:55.033Z,12.97
2022-10-17T15:42:23.351Z,13.50
2022-10-17T15:44:50.262Z,12.97
2022-10-17T15:47:28.826Z,13.80
2022-10-17T15:49:55.612Z,12.37
2022-10-17T15:52:23.484Z,12.07
2022-10-17T15:54:49.847Z,12.17
2022-10-17T15:57:21.346Z,13.20
2022-10-17T15:59:49.145Z,13.13
2022-10-17T16:02:17.774Z,12.67
2022-10-17T16:04:44.950Z,11.70
2022-10-17T16:07:11.793Z,12.10
2022-10-17T16:09:38.220Z,12.43
2022-10-17T16:12:06.706Z,12.67
2022-10-17T16:14:33.087Z,12.70
2022-10-17T16:17:00.160Z,12.83
2022-10-17T16:19:29.793Z,17.00
2022-10-17T16:21:59.643Z,11.77
2022-10-17T16:24:28.857Z,12.33
2022-10-17T16:26:55.283Z,13.83
2022-10-17T16:29:21.682Z,17.03
2022-10-17T16:31:48.064Z,12.20
2022-10-17T16:34:15.564Z,13.40
2022-10-17T16:36:42.658Z,16.33
2022-10-17T16:39:09.432Z,15.20
2022-10-17T16:41:38.242Z,14.57
2022-10-17T16:44:07.226Z,14.43
2022-10-17T16:46:35.684Z,15.50
2022-10-17T16:49:04.669Z,16.53
2022-10-17T16:54:12.797Z,16.80
2022-10-17T16:56:39.220Z,12.17
2022-10-17T16:59:05.618Z,15.37
2022-10-17T17:01:32.046Z,17.00
2022-10-17T17:03:58.498Z,16.73
2022-10-17T17:06:29.409Z,17.47
2022-10-17T17:08:56.486Z,16.60
2022-10-17T17:11:25.024Z,14.30
2022-10-17T17:13:51.794Z,16.50
2022-10-17T17:16:23.331Z,13.23
2022-10-17T17:18:55.232Z,17.73
2022-10-17T17:21:21.857Z,17.77
2022-10-17T17:23:48.347Z,17.23
2022-10-17T17:26:17.659Z,15.17
2022-10-17T17:28:44.573Z,18.27
2022-10-17T17:31:17.154Z,20.30
2022-10-17T17:33:44.692Z,16.77
2022-10-17T17:36:14.975Z,18.70
2022-10-17T17:38:41.392Z,17.03
2022-10-17T17:41:07.828Z,17.63
2022-10-17T17:43:35.751Z,15.67
2022-10-17T17:46:02.311Z,14.87
2022-10-17T17:48:28.729Z,20.90
2022-10-17T17:50:55.109Z,16.07
2022-10-17T17:53:21.546Z,17.90
2022-10-17T17:55:47.914Z,16.67
2022-10-17T17:58:14.456Z,14.57
2022-10-17T18:00:40.981Z,15.90
2022-10-17T18:03:08.177Z,18.07
2022-10-17T18:05:34.647Z,16.53
2022-10-17T18:08:01.220Z,17.37
2022-10-17T18:10:29.317Z,17.57
2022-10-17T18:12:55.671Z,16.57
2022-10-17T18:15:22.107Z,19.80
2022-10-17T18:17:49.124Z,18.43
2022-10-17T18:20:15.855Z,21.57
2022-10-17T18:22:42.246Z,15.60
2022-10-17T18:25:08.776Z,15.43
2022-10-17T18:27:35.389Z,16.57
2022-10-17T18:30:01.731Z,18.43
2022-10-17T18:32:31.465Z,19.30
2022-10-17T18:34:58.499Z,17.47
2022-10-17T18:37:24.970Z,18.13
2022-10-17T18:39:53.993Z,18.27
2022-10-17T18:42:20.485Z,18.80
2022-10-17T18:44:47.369Z,18.30
2022-10-17T18:47:14.109Z,18.87
2022-10-17T18:49:40.472Z,19.50
2022-10-17T18:52:06.965Z,20.20
2022-10-17T18:54:34.632Z,17.17
2022-10-17T18:57:01.264Z,16.40
2022-10-17T18:59:27.712Z,16.77
2022-10-17T19:01:54.323Z,17.13
2022-10-17T19:04:20.819Z,16.33
2022-10-17T19:06:47.185Z,19.70
2022-10-17T19:09:14.696Z,15.53
2022-10-17T19:11:42.226Z,15.33
2022-10-17T19:14:13.389Z,17.83
2022-10-17T19:16:43.614Z,15.53
2022-10-17T19:19:17.292Z,20.77
2022-10-17T19:21:44.246Z,18.03
2022-10-17T19:24:19.775Z,19.63
2022-10-17T19:26:47.590Z,19.13
2022-10-17T19:29:15.268Z,16.97
2022-10-17T19:31:41.761Z,15.90
2022-10-17T19:34:08.229Z,19.80
2022-10-17T19:36:35.473Z,18.03
2022-10-17T19:39:08.574Z,17.30
2022-10-17T19:41:36.323Z,18.63
2022-10-17T19:44:02.796Z,18.47
2022-10-17T19:46:31.004Z,19.87
2022-10-17T19:48:57.828Z,18.50
2022-10-17T19:51:25.053Z,17.07
2022-10-17T19:53:52.864Z,18.87
2022-10-17T19:56:23.573Z,19.70
2022-10-17T19:58:50.845Z,23.90
2022-10-17T20:01:21.636Z,19.57
2022-10-17T20:03:48.430Z,23.00
2022-10-17T20:06:15.749Z,20.47
2022-10-17T20:08:42.312Z,20.10
2022-10-17T20:11:12.482Z,21.97
2022-10-17T20:13:39.571Z,19.97
2022-10-17T20:16:07.884Z,16.60
2022-10-17T20:18:35.138Z,19.87
2022-10-17T20:21:04.242Z,18.33
2022-10-17T20:23:30.776Z,20.67
2022-10-17T20:26:06.785Z,18.90
2022-10-17T20:28:46.107Z,21.93
2022-10-17T20:31:13.194Z,19.13
2022-10-17T20:33:41.429Z,17.30
2022-10-17T20:36:09.732Z,18.63
2022-10-17T20:38:36.308Z,19.67
2022-10-17T20:41:04.521Z,19.83
2022-10-17T20:43:31.245Z,17.03
2022-10-17T20:46:04.622Z,16.90
2022-10-17T20:48:37.389Z,18.43
2022-10-17T20:51:08.973Z,19.90
2022-10-17T20:53:37.412Z,16.40
2022-10-17T20:56:06.741Z,19.07
2022-10-17T20:58:33.342Z,16.73
2022-10-17T21:01:05.860Z,17.27
2022-10-17T21:03:35.323Z,18.97
2022-10-17T21:06:01.917Z,16.43
2022-10-17T21:08:28.285Z,19.00
2022-10-17T21:10:54.663Z,21.03
2022-10-17T21:13:21.116Z,15.57
2022-10-17T21:15:47.499Z,19.53
2022-10-17T21:18:13.853Z,17.93
2022-10-17T21:20:40.203Z,18.47
2022-10-17T21:23:06.612Z,22.93
2022-10-17T21:25:33.019Z,21.30
2022-10-17T21:27:59.519Z,18.67
2022-10-17T21:30:25.892Z,18.67
2022-10-17T21:32:55.621Z,16.87
2022-10-17T21:35:22.190Z,18.77
2022-10-17T21:37:48.857Z,18.00
2022-10-17T21:40:15.302Z,18.97
2022-10-17T21:42:41.629Z,18.30
2022-10-17T21:45:15.459Z,18.17
2022-10-17T21:48:11.104Z,18.43
2022-10-17T21:50:33.191Z,17.03
2022-10-17T21:52:59.559Z,18.07
2022-10-17T21:55:25.975Z,14.73
2022-10-17T21:57:52.383Z,16.90
2022-10-17T22:00:18.936Z,16.93
2022-10-17T22:02:45.311Z,18.90
2022-10-17T22:05:11.663Z,17.27
2022-10-17T22:07:38.098Z,17.97
2022-10-17T22:10:04.889Z,16.53
2022-10-17T22:12:31.585Z,16.33
2022-10-17T22:14:58.120Z,14.60
2022-10-17T22:17:24.480Z,17.80
2022-10-17T22:19:50.850Z,19.80
2022-10-17T22:22:17.205Z,20.03
2022-10-17T22:24:43.588Z,14.17
2022-10-17T22:27:10.369Z,14.70
2022-10-17T22:29:36.852Z,16.93
2022-10-17T22:32:03.261Z,19.50
2022-10-17T22:34:29.631Z,18.50
2022-10-17T22:36:56.119Z,16.60
2022-10-17T22:39:22.486Z,20.03
2022-10-17T22:41:48.863Z,20.57
2022-10-17T22:44:15.227Z,19.87
2022-10-17T22:46:41.713Z,17.83
2022-10-17T22:49:08.450Z,17.40
2022-10-17T22:51:34.922Z,20.17
2022-10-17T22:54:01.297Z,20.00
2022-10-17T22:56:27.748Z,16.03
2022-10-17T22:58:54.141Z,21.20
2022-10-17T23:01:23.527Z,18.03
2022-10-17T23:03:50.838Z,14.13
2022-10-17T23:06:17.631Z,17.17
2022-10-17T23:08:44.071Z,21.27
2022-10-17T23:11:12.302Z,18.63
2022-10-17T23:13:40.643Z,18.93
2022-10-17T23:16:08.089Z,19.43
2022-10-17T23:18:34.711Z,53.53
2022-10-17T23:21:01.274Z,82.17
2022-10-17T23:23:27.643Z,121.10
2022-10-17T23:25:54.037Z,80.77
2022-10-17T23:28:20.447Z,65.43
2022-10-17T23:30:46.856Z,90.10
2022-10-17T23:33:13.964Z,40.90
2022-10-17T23:35:41.139Z,89.73
2022-10-17T23:38:07.841Z,29.53
2022-10-17T23:40:35.252Z,94.40
2022-10-17T23:43:01.965Z,37.93
2022-10-17T23:45:28.390Z,74.47
2022-10-17T23:47:54.759Z,31.47
2022-10-17T23:50:21.119Z,38.93
2022-10-17T23:52:47.490Z,37.03
2022-10-17T23:55:13.889Z,75.47
2022-10-17T23:57:40.271Z,91.53
